DAL1559 KSFO-KLAX
Flight info
| Callsign | DAL1559 |
|---|---|
| Flight time | 0h 52m |
| Altitude | 35000 |
| Route | WESLA5 SUSEY EBAYE BURGL IRNMN2 |
| Aircraft | B738/M-SDE2E3FGHIRWXY/LB1 |
Departure
| Time | 2026-05-05 05:40 |
|---|---|
| Airport | San Francisco International Airport (KSFO) |
Arrival
| Time | 2026-05-05 06:32 |
|---|---|
| Airport | Los Angeles International Airport (KLAX) |
| Time | Latitude | Longitude | Altitude | Speed | Heading |
|---|---|---|---|---|---|
| 2026-05-05 05:27 | 37.62025 | -122.38673 | 31 ft | 0 kts | 297° |
| 2026-05-05 05:29 | 37.62024 | -122.38673 | 31 ft | 1 kts | 298° |
| 2026-05-05 05:30 | 37.62018 | -122.38657 | 31 ft | 2 kts | 297° |
| 2026-05-05 05:30 | 37.62011 | -122.38640 | 31 ft | 2 kts | 311° |
| 2026-05-05 05:30 | 37.61998 | -122.38628 | 31 ft | 2 kts | 336° |
| 2026-05-05 05:30 | 37.61984 | -122.38624 | 31 ft | 2 kts | 360° |
| 2026-05-05 05:31 | 37.61969 | -122.38627 | 31 ft | 1 kts | 22° |
| 2026-05-05 05:31 | 37.61963 | -122.38630 | 31 ft | 1 kts | 31° |
| 2026-05-05 05:31 | 37.61961 | -122.38632 | 31 ft | 0 kts | 28° |
| 2026-05-05 05:33 | 37.61963 | -122.38631 | 31 ft | 1 kts | 28° |
| 2026-05-05 05:33 | 37.61999 | -122.38606 | 31 ft | 7 kts | 28° |
| 2026-05-05 05:34 | 37.62043 | -122.38577 | 31 ft | 7 kts | 26° |
| 2026-05-05 05:34 | 37.62087 | -122.38538 | 31 ft | 8 kts | 63° |
| 2026-05-05 05:34 | 37.62076 | -122.38463 | 31 ft | 9 kts | 116° |
| 2026-05-05 05:34 | 37.62060 | -122.38360 | 31 ft | 13 kts | 62° |
| 2026-05-05 05:35 | 37.62059 | -122.38250 | 31 ft | 14 kts | 117° |
| 2026-05-05 05:35 | 37.62014 | -122.38141 | 31 ft | 14 kts | 118° |
| 2026-05-05 05:35 | 37.61964 | -122.38021 | 31 ft | 15 kts | 121° |
| 2026-05-05 05:35 | 37.61888 | -122.37924 | 30 ft | 15 kts | 145° |
| 2026-05-05 05:36 | 37.61815 | -122.37823 | 28 ft | 16 kts | 112° |
| 2026-05-05 05:36 | 37.61784 | -122.37722 | 26 ft | 11 kts | 112° |
| 2026-05-05 05:36 | 37.61752 | -122.37603 | 22 ft | 19 kts | 109° |
| 2026-05-05 05:36 | 37.61688 | -122.37442 | 17 ft | 21 kts | 117° |
| 2026-05-05 05:37 | 37.61617 | -122.37269 | 14 ft | 22 kts | 118° |
| 2026-05-05 05:37 | 37.61543 | -122.37090 | 11 ft | 23 kts | 117° |
| 2026-05-05 05:37 | 37.61462 | -122.36918 | 11 ft | 22 kts | 128° |
| 2026-05-05 05:37 | 37.61363 | -122.36772 | 11 ft | 21 kts | 120° |
| 2026-05-05 05:38 | 37.61294 | -122.36607 | 11 ft | 20 kts | 118° |
| 2026-05-05 05:38 | 37.61227 | -122.36446 | 9 ft | 21 kts | 117° |
| 2026-05-05 05:38 | 37.61155 | -122.36278 | 8 ft | 22 kts | 118° |
| 2026-05-05 05:38 | 37.61109 | -122.36132 | 8 ft | 14 kts | 77° |
| 2026-05-05 05:39 | 37.61179 | -122.36056 | 8 ft | 13 kts | 28° |
| 2026-05-05 05:39 | 37.61258 | -122.36044 | 8 ft | 12 kts | 312° |
| 2026-05-05 05:39 | 37.61319 | -122.36182 | 8 ft | 33 kts | 298° |
| 2026-05-05 05:39 | 37.61597 | -122.36832 | 12 ft | 130 kts | 297° |
| 2026-05-05 05:40 | 37.62108 | -122.38095 | 319 ft | 185 kts | 298° |
| 2026-05-05 05:40 | 37.62706 | -122.39574 | 1348 ft | 204 kts | 297° |
| 2026-05-05 05:40 | 37.63339 | -122.41161 | 2291 ft | 204 kts | 298° |
| 2026-05-05 05:40 | 37.64037 | -122.42783 | 2844 ft | 219 kts | 301° |
| 2026-05-05 05:41 | 37.64847 | -122.44483 | 3416 ft | 233 kts | 302° |
| 2026-05-05 05:41 | 37.65677 | -122.46273 | 4183 ft | 239 kts | 301° |
| 2026-05-05 05:41 | 37.66493 | -122.48111 | 5019 ft | 241 kts | 300° |
| 2026-05-05 05:41 | 37.67130 | -122.50054 | 5781 ft | 247 kts | 282° |
| 2026-05-05 05:42 | 37.67059 | -122.52216 | 6519 ft | 254 kts | 257° |
| 2026-05-05 05:42 | 37.66351 | -122.54256 | 7261 ft | 260 kts | 240° |
| 2026-05-05 05:42 | 37.65211 | -122.56051 | 7925 ft | 270 kts | 221° |
| 2026-05-05 05:42 | 37.63506 | -122.57176 | 8456 ft | 285 kts | 194° |
| 2026-05-05 05:43 | 37.61494 | -122.57246 | 8992 ft | 296 kts | 169° |
| 2026-05-05 05:43 | 37.59574 | -122.56430 | 9729 ft | 298 kts | 151° |
| 2026-05-05 05:43 | 37.57784 | -122.55066 | 10416 ft | 304 kts | 144° |
| 2026-05-05 05:43 | 37.55995 | -122.53507 | 10874 ft | 319 kts | 142° |
| 2026-05-05 05:44 | 37.54117 | -122.51845 | 11329 ft | 335 kts | 142° |
| 2026-05-05 05:44 | 37.52176 | -122.50159 | 11765 ft | 351 kts | 142° |
| 2026-05-05 05:44 | 37.50108 | -122.48392 | 12188 ft | 366 kts | 142° |
| 2026-05-05 05:44 | 37.48062 | -122.46365 | 12598 ft | 379 kts | 135° |
| 2026-05-05 05:45 | 37.46176 | -122.44030 | 13220 ft | 386 kts | 130° |
| 2026-05-05 05:45 | 37.44356 | -122.41515 | 14001 ft | 389 kts | 128° |
| 2026-05-05 05:45 | 37.42573 | -122.38974 | 14810 ft | 392 kts | 127° |
| 2026-05-05 05:45 | 37.40763 | -122.36405 | 15639 ft | 395 kts | 128° |
| 2026-05-05 05:46 | 37.38908 | -122.33813 | 16442 ft | 398 kts | 128° |
| 2026-05-05 05:46 | 37.37015 | -122.31203 | 17154 ft | 404 kts | 128° |
| 2026-05-05 05:46 | 37.35120 | -122.28613 | 17906 ft | 407 kts | 128° |
| 2026-05-05 05:46 | 37.33179 | -122.25978 | 18620 ft | 411 kts | 128° |
| 2026-05-05 05:47 | 37.31220 | -122.23325 | 19357 ft | 415 kts | 127° |
| 2026-05-05 05:47 | 37.29279 | -122.20702 | 20088 ft | 417 kts | 127° |
| 2026-05-05 05:47 | 37.27276 | -122.18024 | 20836 ft | 420 kts | 128° |
| 2026-05-05 05:47 | 37.25240 | -122.15414 | 21433 ft | 425 kts | 129° |
| 2026-05-05 05:48 | 37.23112 | -122.12774 | 22054 ft | 430 kts | 129° |
| 2026-05-05 05:48 | 37.20972 | -122.10157 | 22685 ft | 433 kts | 129° |
| 2026-05-05 05:48 | 37.18802 | -122.07515 | 23344 ft | 435 kts | 129° |
| 2026-05-05 05:48 | 37.16643 | -122.04887 | 23917 ft | 439 kts | 128° |
| 2026-05-05 05:49 | 37.14442 | -122.02208 | 24640 ft | 439 kts | 128° |
| 2026-05-05 05:49 | 37.12212 | -121.99484 | 25081 ft | 446 kts | 128° |
| 2026-05-05 05:49 | 37.10007 | -121.96790 | 25668 ft | 449 kts | 128° |
| 2026-05-05 05:49 | 37.07763 | -121.94051 | 26302 ft | 451 kts | 128° |
| 2026-05-05 05:50 | 37.05492 | -121.91280 | 26834 ft | 454 kts | 128° |
| 2026-05-05 05:50 | 37.03215 | -121.88501 | 27345 ft | 458 kts | 128° |
| 2026-05-05 05:50 | 37.00933 | -121.85716 | 27880 ft | 460 kts | 128° |
| 2026-05-05 05:50 | 36.98626 | -121.82903 | 28317 ft | 465 kts | 128° |
| 2026-05-05 05:51 | 36.96325 | -121.80104 | 29195 ft | 459 kts | 127° |
| 2026-05-05 05:51 | 36.94038 | -121.77331 | 29992 ft | 455 kts | 127° |
| 2026-05-05 05:51 | 36.91784 | -121.74601 | 30635 ft | 453 kts | 127° |
| 2026-05-05 05:51 | 36.89506 | -121.71836 | 31095 ft | 453 kts | 127° |
| 2026-05-05 05:52 | 36.87254 | -121.69102 | 31500 ft | 453 kts | 127° |
| 2026-05-05 05:52 | 36.84979 | -121.66341 | 31955 ft | 453 kts | 128° |
| 2026-05-05 05:52 | 36.82714 | -121.63594 | 32429 ft | 451 kts | 128° |
| 2026-05-05 05:52 | 36.80445 | -121.60844 | 32771 ft | 453 kts | 129° |
| 2026-05-05 05:53 | 36.78155 | -121.58073 | 33118 ft | 453 kts | 129° |
| 2026-05-05 05:53 | 36.75885 | -121.55327 | 33386 ft | 454 kts | 130° |
| 2026-05-05 05:53 | 36.73590 | -121.52553 | 33707 ft | 454 kts | 130° |
| 2026-05-05 05:53 | 36.71324 | -121.49816 | 33966 ft | 456 kts | 130° |
| 2026-05-05 05:54 | 36.69022 | -121.47040 | 34332 ft | 455 kts | 131° |
| 2026-05-05 05:54 | 36.66719 | -121.44263 | 34671 ft | 455 kts | 131° |
| 2026-05-05 05:54 | 36.64397 | -121.41470 | 34943 ft | 455 kts | 131° |
| 2026-05-05 05:54 | 36.62083 | -121.38686 | 34994 ft | 459 kts | 131° |
| 2026-05-05 05:55 | 36.57497 | -121.33179 | 34988 ft | 458 kts | 133° |
| 2026-05-05 05:55 | 36.52854 | -121.27613 | 34984 ft | 459 kts | 133° |
| 2026-05-05 05:56 | 36.48203 | -121.22043 | 34985 ft | 460 kts | 133° |
| 2026-05-05 05:56 | 36.43605 | -121.16547 | 34980 ft | 461 kts | 133° |
| 2026-05-05 05:57 | 36.38956 | -121.11002 | 34983 ft | 462 kts | 134° |
| 2026-05-05 05:57 | 36.34307 | -121.05469 | 34985 ft | 460 kts | 134° |
| 2026-05-05 05:58 | 36.29684 | -120.99975 | 34977 ft | 461 kts | 134° |
| 2026-05-05 05:58 | 36.25029 | -120.94456 | 34988 ft | 463 kts | 134° |
| 2026-05-05 05:59 | 36.20366 | -120.88934 | 35006 ft | 462 kts | 134° |
| 2026-05-05 05:59 | 36.15733 | -120.83459 | 35009 ft | 461 kts | 135° |
| 2026-05-05 06:00 | 36.11102 | -120.77991 | 35005 ft | 460 kts | 135° |
| 2026-05-05 06:00 | 36.06447 | -120.72505 | 35008 ft | 461 kts | 135° |
| 2026-05-05 06:01 | 36.01797 | -120.67036 | 35002 ft | 461 kts | 135° |
| 2026-05-05 06:01 | 35.97134 | -120.61560 | 35000 ft | 461 kts | 136° |
| 2026-05-05 06:02 | 35.92481 | -120.56107 | 35003 ft | 461 kts | 136° |
| 2026-05-05 06:02 | 35.87832 | -120.50666 | 35012 ft | 460 kts | 136° |
| 2026-05-05 06:03 | 35.83188 | -120.45239 | 35005 ft | 461 kts | 136° |
| 2026-05-05 06:03 | 35.78554 | -120.39835 | 35008 ft | 458 kts | 137° |
| 2026-05-05 06:04 | 35.73745 | -120.34235 | 35011 ft | 457 kts | 137° |
| 2026-05-05 06:04 | 35.65029 | -120.24111 | 35011 ft | 456 kts | 138° |
| 2026-05-05 06:05 | 35.56062 | -120.13727 | 35012 ft | 456 kts | 138° |
| 2026-05-05 06:05 | 35.47132 | -120.03423 | 35013 ft | 456 kts | 138° |
| 2026-05-05 06:06 | 35.38136 | -119.93073 | 34995 ft | 457 kts | 139° |
| 2026-05-05 06:06 | 35.29346 | -119.82987 | 35002 ft | 460 kts | 140° |
| 2026-05-05 06:07 | 35.19835 | -119.73626 | 34999 ft | 457 kts | 147° |
| 2026-05-05 06:07 | 35.09827 | -119.64593 | 34997 ft | 458 kts | 147° |
| 2026-05-05 06:08 | 35.00010 | -119.55538 | 35005 ft | 457 kts | 147° |
| 2026-05-05 06:08 | 34.93454 | -119.49464 | 34996 ft | 458 kts | 147° |
| 2026-05-05 06:09 | 34.88393 | -119.44807 | 34671 ft | 451 kts | 148° |
| 2026-05-05 06:09 | 34.85875 | -119.42538 | 33772 ft | 457 kts | 148° |
| 2026-05-05 06:09 | 34.83298 | -119.40241 | 32960 ft | 462 kts | 148° |
| 2026-05-05 06:10 | 34.79845 | -119.37175 | 32118 ft | 462 kts | 148° |
| 2026-05-05 06:10 | 34.74949 | -119.32818 | 30952 ft | 461 kts | 148° |
| 2026-05-05 06:10 | 34.72298 | -119.30473 | 30535 ft | 454 kts | 149° |
| 2026-05-05 06:10 | 34.69742 | -119.28235 | 30312 ft | 441 kts | 149° |
| 2026-05-05 06:11 | 34.67251 | -119.26057 | 29902 ft | 436 kts | 149° |
| 2026-05-05 06:11 | 34.64833 | -119.23940 | 29332 ft | 433 kts | 149° |
| 2026-05-05 06:11 | 34.62367 | -119.21820 | 28870 ft | 428 kts | 150° |
| 2026-05-05 06:11 | 34.59979 | -119.19767 | 28371 ft | 424 kts | 150° |
| 2026-05-05 06:12 | 34.57571 | -119.17677 | 27815 ft | 420 kts | 149° |
| 2026-05-05 06:12 | 34.55216 | -119.15649 | 27302 ft | 415 kts | 149° |
| 2026-05-05 06:12 | 34.52871 | -119.13617 | 26791 ft | 411 kts | 149° |
| 2026-05-05 06:12 | 34.50559 | -119.11581 | 26147 ft | 411 kts | 148° |
| 2026-05-05 06:13 | 34.48235 | -119.09522 | 25744 ft | 403 kts | 148° |
| 2026-05-05 06:13 | 34.46010 | -119.07546 | 25209 ft | 399 kts | 148° |
| 2026-05-05 06:13 | 34.43769 | -119.05560 | 24669 ft | 396 kts | 148° |
| 2026-05-05 06:13 | 34.41575 | -119.03635 | 24135 ft | 393 kts | 148° |
| 2026-05-05 06:14 | 34.39373 | -119.01723 | 23610 ft | 389 kts | 148° |
| 2026-05-05 06:14 | 34.37168 | -118.99818 | 23032 ft | 386 kts | 148° |
| 2026-05-05 06:14 | 34.34998 | -118.97945 | 22416 ft | 384 kts | 148° |
| 2026-05-05 06:14 | 34.32839 | -118.96066 | 21849 ft | 381 kts | 147° |
| 2026-05-05 06:15 | 34.30724 | -118.94171 | 21298 ft | 378 kts | 146° |
| 2026-05-05 06:15 | 34.28623 | -118.92260 | 20740 ft | 376 kts | 146° |
| 2026-05-05 06:15 | 34.26521 | -118.90340 | 20159 ft | 373 kts | 146° |
| 2026-05-05 06:15 | 34.24464 | -118.88458 | 19433 ft | 369 kts | 145° |
| 2026-05-05 06:16 | 34.22432 | -118.86588 | 18634 ft | 366 kts | 145° |
| 2026-05-05 06:16 | 34.20428 | -118.84736 | 17896 ft | 362 kts | 145° |
| 2026-05-05 06:16 | 34.18465 | -118.82919 | 17464 ft | 349 kts | 144° |
| 2026-05-05 06:16 | 34.16585 | -118.81178 | 17146 ft | 336 kts | 144° |
| 2026-05-05 06:17 | 34.14819 | -118.79422 | 16829 ft | 324 kts | 141° |
| 2026-05-05 06:17 | 34.13164 | -118.77617 | 16291 ft | 320 kts | 140° |
| 2026-05-05 06:17 | 34.11528 | -118.75772 | 15681 ft | 319 kts | 139° |
| 2026-05-05 06:17 | 34.09914 | -118.73964 | 15100 ft | 316 kts | 139° |
| 2026-05-05 06:18 | 34.08283 | -118.72163 | 14531 ft | 314 kts | 140° |
| 2026-05-05 06:18 | 34.06682 | -118.70415 | 13977 ft | 310 kts | 140° |
| 2026-05-05 06:18 | 34.05078 | -118.68671 | 13438 ft | 308 kts | 139° |
| 2026-05-05 06:18 | 34.03625 | -118.66839 | 13107 ft | 299 kts | 129° |
| 2026-05-05 06:19 | 34.02674 | -118.64648 | 12681 ft | 297 kts | 106° |
| 2026-05-05 06:19 | 34.02350 | -118.62193 | 12166 ft | 297 kts | 96° |
| 2026-05-05 06:19 | 34.02213 | -118.59712 | 11651 ft | 296 kts | 94° |
| 2026-05-05 06:19 | 34.02070 | -118.57258 | 11170 ft | 293 kts | 95° |
| 2026-05-05 06:20 | 34.01878 | -118.54843 | 10675 ft | 291 kts | 96° |
| 2026-05-05 06:20 | 34.01665 | -118.52420 | 10193 ft | 289 kts | 97° |
| 2026-05-05 06:20 | 34.01447 | -118.50061 | 9939 ft | 277 kts | 97° |
| 2026-05-05 06:20 | 34.01228 | -118.47782 | 9744 ft | 265 kts | 97° |
| 2026-05-05 06:21 | 34.01093 | -118.45589 | 9470 ft | 258 kts | 89° |
| 2026-05-05 06:21 | 34.01317 | -118.43488 | 9284 ft | 249 kts | 78° |
| 2026-05-05 06:21 | 34.01703 | -118.41473 | 8834 ft | 252 kts | 77° |
| 2026-05-05 06:21 | 34.02106 | -118.39417 | 8510 ft | 248 kts | 77° |
| 2026-05-05 06:22 | 34.02471 | -118.37415 | 8146 ft | 247 kts | 78° |
| 2026-05-05 06:22 | 34.02806 | -118.35400 | 7786 ft | 245 kts | 81° |
| 2026-05-05 06:22 | 34.03044 | -118.33340 | 7393 ft | 245 kts | 84° |
| 2026-05-05 06:22 | 34.03227 | -118.31312 | 7039 ft | 243 kts | 84° |
| 2026-05-05 06:23 | 34.03411 | -118.29289 | 6675 ft | 242 kts | 84° |
| 2026-05-05 06:23 | 34.03618 | -118.27305 | 6322 ft | 241 kts | 83° |
| 2026-05-05 06:23 | 34.03848 | -118.25296 | 5988 ft | 238 kts | 83° |
| 2026-05-05 06:23 | 34.04072 | -118.23344 | 5965 ft | 236 kts | 83° |
| 2026-05-05 06:24 | 34.04296 | -118.21382 | 5956 ft | 236 kts | 83° |
| 2026-05-05 06:24 | 34.04517 | -118.19422 | 5752 ft | 234 kts | 83° |
| 2026-05-05 06:24 | 34.04737 | -118.17467 | 5411 ft | 237 kts | 84° |
| 2026-05-05 06:24 | 34.04961 | -118.15495 | 5176 ft | 234 kts | 83° |
| 2026-05-05 06:25 | 34.05180 | -118.13573 | 4829 ft | 233 kts | 83° |
| 2026-05-05 06:25 | 34.05337 | -118.11636 | 4511 ft | 231 kts | 95° |
| 2026-05-05 06:25 | 34.04808 | -118.09866 | 4218 ft | 227 kts | 130° |
| 2026-05-05 06:25 | 34.03614 | -118.08674 | 3998 ft | 220 kts | 154° |
| 2026-05-05 06:26 | 34.02182 | -118.08007 | 3973 ft | 221 kts | 166° |
| 2026-05-05 06:26 | 34.00648 | -118.07888 | 3962 ft | 224 kts | 193° |
| 2026-05-05 06:26 | 33.99248 | -118.08718 | 3970 ft | 224 kts | 220° |
| 2026-05-05 06:26 | 33.98205 | -118.10107 | 3960 ft | 220 kts | 236° |
| 2026-05-05 06:27 | 33.97696 | -118.11817 | 3958 ft | 218 kts | 266° |
| 2026-05-05 06:27 | 33.97760 | -118.15452 | 3961 ft | 216 kts | 264° |
| 2026-05-05 06:27 | 33.97578 | -118.17186 | 3913 ft | 202 kts | 261° |
| 2026-05-05 06:28 | 33.97384 | -118.18851 | 3669 ft | 200 kts | 262° |
| 2026-05-05 06:28 | 33.97215 | -118.20503 | 3397 ft | 197 kts | 263° |
| 2026-05-05 06:28 | 33.97056 | -118.22124 | 3118 ft | 194 kts | 263° |
| 2026-05-05 06:28 | 33.96893 | -118.23727 | 2850 ft | 191 kts | 263° |
| 2026-05-05 06:29 | 33.96732 | -118.25314 | 2585 ft | 189 kts | 263° |
| 2026-05-05 06:29 | 33.96572 | -118.26884 | 2327 ft | 186 kts | 263° |
| 2026-05-05 06:29 | 33.96416 | -118.28415 | 2076 ft | 183 kts | 263° |
| 2026-05-05 06:29 | 33.96265 | -118.29901 | 1828 ft | 174 kts | 262° |
| 2026-05-05 06:30 | 33.96122 | -118.31293 | 1620 ft | 160 kts | 263° |
| 2026-05-05 06:30 | 33.95993 | -118.32583 | 1397 ft | 146 kts | 263° |
| 2026-05-05 06:30 | 33.95872 | -118.33752 | 1197 ft | 139 kts | 262° |
| 2026-05-05 06:30 | 33.95752 | -118.34907 | 1016 ft | 138 kts | 263° |
| 2026-05-05 06:31 | 33.95636 | -118.36051 | 816 ft | 138 kts | 263° |
| 2026-05-05 06:31 | 33.95525 | -118.37185 | 621 ft | 135 kts | 264° |
| 2026-05-05 06:31 | 33.95411 | -118.38300 | 471 ft | 132 kts | 261° |
| 2026-05-05 06:31 | 33.95291 | -118.39391 | 313 ft | 132 kts | 263° |
| 2026-05-05 06:32 | 33.95180 | -118.40486 | 128 ft | 130 kts | 263° |
| 2026-05-05 06:32 | 33.95084 | -118.41402 | 123 ft | 79 kts | 262° |
| 2026-05-05 06:32 | 33.95041 | -118.41840 | 123 ft | 34 kts | 263° |
| 2026-05-05 06:32 | 33.95011 | -118.42044 | 120 ft | 22 kts | 252° |
| 2026-05-05 06:33 | 33.94939 | -118.42196 | 120 ft | 20 kts | 232° |
| 2026-05-05 06:33 | 33.94898 | -118.42252 | 119 ft | 5 kts | 226° |
| 2026-05-05 06:33 | 33.94891 | -118.42259 | 119 ft | 0 kts | 223° |
| 2026-05-05 06:33 | 33.94888 | -118.42264 | 119 ft | 3 kts | 223° |
| 2026-05-05 06:34 | 33.94826 | -118.42287 | 117 ft | 13 kts | 178° |
| 2026-05-05 06:34 | 33.94733 | -118.42275 | 116 ft | 13 kts | 173° |
| 2026-05-05 06:34 | 33.94644 | -118.42261 | 116 ft | 12 kts | 169° |
| 2026-05-05 06:34 | 33.94607 | -118.42181 | 116 ft | 11 kts | 84° |
| 2026-05-05 06:35 | 33.94616 | -118.42084 | 117 ft | 10 kts | 83° |
| 2026-05-05 06:35 | 33.94624 | -118.42006 | 119 ft | 8 kts | 83° |
| 2026-05-05 06:35 | 33.94632 | -118.41900 | 119 ft | 16 kts | 84° |
| 2026-05-05 06:35 | 33.94644 | -118.41764 | 120 ft | 15 kts | 83° |
| 2026-05-05 06:36 | 33.94658 | -118.41637 | 120 ft | 15 kts | 83° |
| 2026-05-05 06:36 | 33.94671 | -118.41512 | 120 ft | 14 kts | 82° |
| 2026-05-05 06:36 | 33.94684 | -118.41396 | 120 ft | 13 kts | 83° |
| 2026-05-05 06:36 | 33.94671 | -118.41293 | 121 ft | 12 kts | 143° |
| 2026-05-05 06:37 | 33.94582 | -118.41270 | 120 ft | 14 kts | 173° |
| 2026-05-05 06:37 | 33.94499 | -118.41299 | 120 ft | 13 kts | 243° |
| 2026-05-05 06:37 | 33.94426 | -118.41347 | 120 ft | 12 kts | 176° |
| 2026-05-05 06:37 | 33.94381 | -118.41373 | 120 ft | 7 kts | 267° |
| 2026-05-05 06:38 | 33.94375 | -118.41438 | 120 ft | 7 kts | 263° |
| 2026-05-05 06:38 | 33.94373 | -118.41452 | 120 ft | 0 kts | 263° |